Flight Track Log - Related Links

Times and Time Zones

All times are in EDT time to prevent confusion due to time zone crossing. See the ASQ5678 flight status page for this flight to view local times or setup timezone preferences in your user account.


Time Position Orientation Groundspeed Altitude Reporting Facility
EDT Latitude Longitude Course Direction KTS MPH feet Rate Location/Type
Thu 03:23:00 PM 29.9852 -92.2774 231° Southwest  Level FlightAware Approximate
Thu 03:24:00 PM 29.9314 -92.3520 221° Southwest  Level FlightAware Approximate
Thu 03:24:23 PM 30.1750 -92.1575 231° Southwest 291 335 11,000  Level Houston Center
Thu 03:25:00 PM 29.8876 -92.4322 227° Southwest  Level FlightAware Approximate
Thu 03:25:26 PM 30.1308 -92.2822 248° West 330 380 12,900  Level Houston Center
Thu 03:26:00 PM 29.8293 -92.5061 233° Southwest  Level FlightAware Approximate
Thu 03:26:28 PM 30.0900 -92.3972 248° West 359 413 14,000  Level Houston Center
Thu 03:27:00 PM 29.7765 -92.5853 233° Southwest  Level FlightAware Approximate
Thu 03:27:30 PM 30.0447 -92.5164 246° West 382 440 15,400  Level Houston Center
Thu 03:28:32 PM 29.9997 -92.6361 247° West 396 456 17,400 1,887 Climbing Houston Center
Thu 03:29:34 PM 29.9544 -92.7531 246° West 399 459 19,300 1,258 Climbing Houston Center
Thu 03:30:36 PM 29.9094 -92.8714 246° West 401 461 20,000 290 Climbing Houston Center
Thu 03:31:38 PM 29.8514 -93.0256 247° West 431 496 19,900  Descending Houston Center
Thu 03:32:40 PM 29.8006 -93.1492 245° Southwest 427 491 20,000 48 Climbing Houston Center
Thu 03:33:42 PM 29.7439 -93.2689 241° Southwest 423 487 20,000  Level Houston Center
Thu 03:34:45 PM 29.6981 -93.3958 247° West 427 491 20,000  Level Houston Center
Thu 03:35:47 PM 29.6708 -93.5311 257° West 431 496 20,000  Level Houston Center
Thu 03:36:49 PM 29.6483 -93.6633 259° West 423 487 20,000 -48 Level Houston Center
Thu 03:37:51 PM 29.6261 -93.7953 259° West 420 483 19,900 -1,065 Descending Houston Center
Thu 03:38:53 PM 29.6000 -93.9531 259° West 419 482 17,800 -1,790 Descending Houston Center
Thu 03:39:55 PM 29.5783 -94.0814 259° West 411 473 16,200 -1,843 Descending Houston Center
Thu 03:41:26 PM 29.5442 -94.2742 259° West 385 443 13,100 -1,548 Descending Houston Center
Thu 03:41:59 PM 29.5394 -94.3317 265° West 375 432 13,000 -632 Descending Houston Center
Thu 03:43:01 PM 29.5700 -94.4303 290° West 335 386 12,100 -1,248 Descending Houston Center
Thu 03:44:04 PM 29.6114 -94.5283 296° West 343 395 10,400 -1,340 Descending Houston Center
Thu 03:44:35 PM 29.6383 -94.5914 296° West 341 392 10,000 -261 Descending Houston Center
Thu 03:45:36 PM 29.6847 -94.6792 301° West 329 379 10,000  Level Houston Center
Thu 03:46:08 PM 29.7036 -94.7342 292° West 334 384 10,000 -383 Level Houston Center
Thu 03:47:10 PM 29.7383 -94.8231 294° West 311 358 9,400 -1,210 Descending Houston Center
Thu 03:48:12 PM 29.7719 -94.9036 296° West 284 327 7,500 -1,645 Descending Houston Center
Thu 03:49:14 PM 29.8081 -94.9842 297° West 286 329 6,000 -720 Descending Houston Center
Thu 03:50:17 PM 29.8553 -95.0531 308° West 277 319 6,000 48 Level Houston Center
Thu 03:51:19 PM 29.8961 -95.1439 297° West 280 322 6,100 48 Climbing Houston Center
Thu 03:52:21 PM 29.9003 -95.2342 273° West 286 329 6,100  Level Houston Center
Thu 03:53:23 PM 29.9003 -95.3231 270° West 282 325 6,100 -48 Level Houston Center
Thu 03:54:25 PM 29.9006 -95.4103 270° West 278 320 6,000 -145 Descending Houston Center
Thu 03:55:27 PM 29.9008 -95.4861 270° West 249 287 5,800 -1,161 Descending Houston Center
Thu 03:56:29 PM 29.9436 -95.5422 311° West 234 269 3,600 -1,452 Descending Houston Center
Thu 03:57:31 PM 29.9858 -95.5092 34° Northeast 205 236 2,800 -912 Descending Houston Center
Thu 03:58:34 PM 29.9942 -95.4514 81° East 192 221 1,700 -864 Descending Houston Center
Thu 03:59:36 PM 29.9936 -95.4039 91° East 171 197 1,000 -629 Descending Houston Center
Thu 04:00:38 PM 29.9936 -95.3581 90° East 153 176 400 -581 Descending Houston Center

Login

Don't have an account? Register now (free) for customized features, flight alerts, and more!